首页
METAR-TAF:

METAR-TAF

机场 :

Cherry Capital Airport

特拉弗斯城, 密歇根州, 美国

纬度: 44-44-12N, 经度: 085-34-12W, 海拔: 190米

当前天气观测

该预报发布于42分钟前的06:53 UTC
静风
温度 -2°C
湿度 86%
气压 1020 hPa
能見度: 16.1公里
天空无云

METAR: KTVC 030653Z AUTO 00000KT 10SM CLR M02/M04 A3012 RMK AO2 SLP204 T10171039

时间: 03:35 (07:35 UTC)

预报

该预报发布于2小时和15分钟前的05:20 UTC
预报有效从03日的 06点(UTC)到 04日的 06点(UTC)
风速节,风向
能見度: 10公里
天空无云
从 03日的 2000点(UTC)
风速5节,风向北转东北
能見度: 10公里
散云层高于10000英尺
从 04日的 0100点(UTC)
风速3节,风向多变
能見度: 10公里
散云层高于10000英尺
从 04日的 0500点(UTC)
风速5节,风向南转南东
能見度: 10公里
散云层高于10000英尺

TAF: KTVC 030520Z 0306/0406 00000KT P6SM SKC FM032000 02005KT P6SM SCT100 FM040100 VRB03KT P6SM SCT100 FM040500 15005KT P6SM SCT100

超过4000个机场的气象观测和天气预报(METAR&TAF报告)。

可查询的气象台以黄色和红色小点在地图上表示。

将鼠标移到小点上方,可查看气象台名称。

然后点击查看天气观测和预报。

如需切换地图:点击带黑十字的绿色按钮放大地图;点击带横线的绿色按钮缩小地图;或者点击绿色箭头查看邻近地区的地图。


METAR-TAF: